Time;durP1;ratioP1;P1;durP2;ratioP2;P2;SDS_P1;SDS_P2;PMS_P1;PMS_P2;Temp;Humidity;BMP_temperature;BMP_pressure;BME280_temperature;BME280_humidity;BME280_pressure;Samples;Min_cycle;Max_cycle;Signal;HPM_P1;HPM_P2
2024/03/08 00:00:37;;;;;;;;;72.67;55.67;;;;;5.05;100.00;99858.25;6307597;20;3634668;-45
2024/03/08 00:03:07;;;;;;;;;66.00;50.00;;;;;4.95;100.00;99851.53;6309597;20;3641012;-45
2024/03/08 00:05:38;;;;;;;;;74.33;57.00;;;;;4.98;100.00;99859.41;6307949;20;3635556;-45
2024/03/08 00:08:09;;;;;;;;;75.33;55.33;;;;;4.77;100.00;99862.81;6310809;20;3649339;-45
2024/03/08 00:10:39;;;;;;;;;73.00;56.00;;;;;4.86;100.00;99862.47;6311124;20;3635662;-45
2024/03/08 00:13:09;;;;;;;;;67.00;51.00;;;;;4.99;100.00;99858.47;6308566;20;3640964;-46
2024/03/08 00:15:38;;;;;;;;;71.33;51.67;;;;;5.01;100.00;99864.59;6308917;20;3648171;-45
2024/03/08 00:18:08;;;;;;;;;72.67;54.33;;;;;4.94;100.00;99865.75;6307991;20;3642077;-48
2024/03/08 00:20:38;;;;;;;;;73.33;53.00;;;;;4.92;100.00;99856.94;6311827;20;3638809;-47
2024/03/08 00:23:08;;;;;;;;;73.00;55.00;;;;;4.85;100.00;99860.75;6308904;20;3638988;-48
2024/03/08 00:25:38;;;;;;;;;73.00;55.67;;;;;5.05;100.00;99854.72;6309060;20;3638853;-46
2024/03/08 00:28:08;;;;;;;;;68.33;54.67;;;;;5.06;100.00;99857.31;6309215;20;3622233;-45
2024/03/08 00:30:38;;;;;;;;;74.00;54.33;;;;;5.35;100.00;99854.53;6309131;20;3653535;-47
2024/03/08 00:33:07;;;;;;;;;71.33;52.33;;;;;5.04;100.00;99861.81;6311104;20;3644023;-46
2024/03/08 00:35:37;;;;;;;;;66.33;54.33;;;;;5.59;100.00;99850.91;6308421;20;2875539;-45
2024/03/08 00:38:06;;;;;;;;;76.00;56.00;;;;;5.16;100.00;99849.00;6308939;20;2797265;-46
2024/03/08 00:40:35;;;;;;;;;67.67;53.67;;;;;5.05;100.00;99850.28;6277391;20;3628410;-45
2024/03/08 00:43:05;;;;;;;;;69.33;55.67;;;;;5.09;100.00;99847.50;6309746;20;3619042;-45
2024/03/08 00:45:34;;;;;;;;;67.33;52.67;;;;;5.14;100.00;99854.38;6307536;20;3624252;-46
2024/03/08 00:48:05;;;;;;;;;74.00;55.67;;;;;5.09;100.00;99853.69;6307911;20;3644111;-46
2024/03/08 00:50:35;;;;;;;;;68.00;54.33;;;;;4.89;100.00;99843.75;6308476;20;2878518;-45
2024/03/08 00:53:05;;;;;;;;;74.00;54.33;;;;;4.70;100.00;99846.19;6309957;20;3637811;-50
2024/03/08 00:55:35;;;;;;;;;69.00;52.00;;;;;4.60;100.00;99842.97;6308161;20;3641079;-46
2024/03/08 00:58:05;;;;;;;;;73.00;53.33;;;;;4.68;100.00;99844.50;6307503;20;3640906;-44
2024/03/08 01:00:35;;;;;;;;;73.00;54.00;;;;;4.61;100.00;99847.41;6310471;20;3648304;-46
2024/03/08 01:03:06;;;;;;;;;75.00;56.67;;;;;4.75;100.00;99843.38;6309765;20;3648180;-46
2024/03/08 01:05:36;;;;;;;;;73.33;56.67;;;;;4.65;100.00;99842.81;6303903;20;3643241;-45
2024/03/08 01:08:07;;;;;;;;;62.33;53.00;;;;;4.58;100.00;99835.97;6306010;20;3622291;-45
2024/03/08 01:10:37;;;;;;;;;66.50;54.50;;;;;4.67;100.00;99843.66;6309005;20;2861773;-46
2024/03/08 01:13:06;;;;;;;;;69.33;53.67;;;;;4.81;100.00;99851.13;6277498;20;2881674;-45
2024/03/08 01:15:36;;;;;;;;;75.00;53.67;;;;;4.79;100.00;99850.31;6306773;20;3648190;-48
2024/03/08 01:18:06;;;;;;;;;76.33;59.00;;;;;4.69;100.00;99851.59;6274981;20;2866052;-46
2024/03/08 01:20:36;;;;;;;;;77.67;55.33;;;;;4.82;100.00;99850.22;6309421;20;3647152;-46
2024/03/08 01:23:07;;;;;;;;;79.00;61.00;;;;;4.73;100.00;99845.22;6308336;20;2879622;-47
2024/03/08 01:25:36;;;;;;;;;75.33;57.00;;;;;4.87;100.00;99852.72;6306690;20;3650274;-45
2024/03/08 01:28:06;;;;;;;;;76.33;57.33;;;;;4.50;100.00;99846.00;6309801;20;3637792;-46
2024/03/08 01:30:37;;;;;;;;;72.00;56.00;;;;;4.45;100.00;99846.19;6309123;20;3642004;-45
2024/03/08 01:33:07;;;;;;;;;75.33;56.67;;;;;4.55;100.00;99842.28;6309617;20;3629487;-46
2024/03/08 01:35:36;;;;;;;;;68.00;51.67;;;;;4.84;100.00;99849.25;6308146;20;3636746;-46
2024/03/08 01:38:06;;;;;;;;;71.67;53.67;;;;;4.34;100.00;99848.31;6308929;20;3646145;-48
2024/03/08 01:40:36;;;;;;;;;73.33;56.67;;;;;4.29;100.00;99844.94;6274737;20;3628418;-45
2024/03/08 01:43:28;;;;;;;;;72.00;51.67;;;;;4.22;100.00;99848.75;6307756;20;3641960;-47
2024/03/08 01:45:59;;;;;;;;;73.67;54.33;;;;;4.32;100.00;99839.56;6308540;20;2885885;-46
2024/03/08 01:48:30;;;;;;;;;76.33;57.00;;;;;4.30;100.00;99836.06;6307055;20;3628384;-46
2024/03/08 01:51:00;;;;;;;;;74.33;56.00;;;;;4.22;100.00;99836.31;6307847;20;3634626;-47
2024/03/08 01:53:30;;;;;;;;;69.00;51.50;;;;;4.52;100.00;99834.41;6310682;20;3631507;-45
2024/03/08 01:56:02;;;;;;;;;67.33;53.00;;;;;4.35;100.00;99839.44;6307610;20;3623173;-46
2024/03/08 01:58:33;;;;;;;;;75.33;56.00;;;;;4.31;100.00;99829.81;6305836;20;3632538;-46
2024/03/08 02:01:03;;;;;;;;;72.33;55.33;;;;;4.37;100.00;99832.25;6304114;20;3629420;-50
2024/03/08 02:03:33;;;;;;;;;75.67;56.00;;;;;4.65;100.00;99834.00;6305821;20;3636750;-48
2024/03/08 02:06:05;;;;;;;;;71.00;55.00;;;;;4.39;100.00;99835.75;6307103;20;2877454;-47
2024/03/08 02:08:35;;;;;;;;;71.67;53.00;;;;;4.18;100.00;99838.19;6308692;20;3645044;-51
2024/03/08 02:11:05;;;;;;;;;74.00;56.33;;;;;4.34;100.00;99841.22;6304351;20;3628375;-47
2024/03/08 02:13:35;;;;;;;;;71.67;53.33;;;;;4.28;100.00;99836.09;6306033;20;3654422;-45
2024/03/08 02:16:07;;;;;;;;;70.33;55.00;;;;;4.25;100.00;99838.88;6306676;20;2869126;-50
2024/03/08 02:18:39;;;;;;;;;77.00;55.33;;;;;4.31;100.00;99837.78;6305525;20;3637915;-45
2024/03/08 02:21:09;;;;;;;;;72.33;55.00;;;;;4.28;100.00;99843.22;6306271;20;3646154;-47
2024/03/08 02:23:40;;;;;;;;;73.33;55.00;;;;;4.18;100.00;99843.50;6304509;20;3629447;-49
2024/03/08 02:26:09;;;;;;;;;77.67;57.67;;;;;4.35;100.00;99840.31;6304870;20;3641942;-48
2024/03/08 02:28:40;;;;;;;;;70.67;54.67;;;;;4.20;100.00;99832.84;6306478;20;3628446;-45
2024/03/08 02:31:10;;;;;;;;;71.00;54.00;;;;;4.13;100.00;99840.16;6305742;20;3636725;-51
2024/03/08 02:33:39;;;;;;;;;70.00;56.00;;;;;4.18;100.00;99843.50;6306369;20;2868135;-49
2024/03/08 02:36:09;;;;;;;;;72.67;55.33;;;;;4.28;100.00;99838.75;6304943;20;3630638;-47
2024/03/08 02:38:41;;;;;;;;;80.67;58.00;;;;;4.39;100.00;99827.78;6305943;20;3660732;-44
2024/03/08 02:41:11;;;;;;;;;74.00;54.67;;;;;4.27;100.00;99834.38;6305305;20;3635697;-46
2024/03/08 02:43:40;;;;;;;;;75.67;56.00;;;;;4.12;100.00;99838.41;6305427;20;3640887;-47
2024/03/08 02:46:10;;;;;;;;;74.33;55.00;;;;;4.40;100.00;99829.53;6303122;20;3643172;-49
2024/03/08 02:48:40;;;;;;;;;72.33;55.67;;;;;4.26;100.00;99835.28;6303170;20;3626348;-45
2024/03/08 02:51:10;;;;;;;;;76.67;55.00;;;;;4.10;100.00;99850.88;6305742;20;3633621;-44
2024/03/08 02:53:40;;;;;;;;;73.33;51.67;;;;;4.18;100.00;99843.50;6303889;20;3646110;-46
2024/03/08 02:56:12;;;;;;;;;68.33;51.67;;;;;4.01;100.00;99840.56;6305884;20;3628381;-48
2024/03/08 02:58:43;;;;;;;;;72.67;54.33;;;;;4.12;100.00;99849.03;6305116;20;3637877;-50
2024/03/08 03:01:12;;;;;;;;;57.00;42.67;;;;;4.06;100.00;99843.94;6301922;20;2878473;-46
2024/03/08 03:03:42;;;;;;;;;76.00;55.67;;;;;4.20;100.00;99845.25;6300922;20;3644001;-45
2024/03/08 03:06:12;;;;;;;;;74.00;53.67;;;;;4.01;100.00;99845.00;6303197;20;3654470;-48
2024/03/08 03:08:43;;;;;;;;;71.33;54.33;;;;;4.08;100.00;99846.53;6302624;20;3637785;-45
2024/03/08 03:11:13;;;;;;;;;79.00;54.33;;;;;3.97;100.00;99846.88;6302860;20;3653379;-45
2024/03/08 03:13:47;;;;;;;;;79.00;53.67;;;;;4.10;100.00;99844.69;6267673;20;3653455;-48
2024/03/08 03:16:21;;;;;;;;;77.00;56.00;;;;;4.16;100.00;99850.69;6270700;20;3618467;-48
2024/03/08 03:18:51;;;;;;;;;73.33;58.00;;;;;4.06;100.00;99849.25;6305905;20;3627742;-46
2024/03/08 03:21:21;;;;;;;;;77.67;56.00;;;;;3.98;100.00;99853.94;6303834;20;3651318;-46
2024/03/08 03:23:50;;;;;;;;;73.67;57.00;;;;;4.06;100.00;99843.94;6305753;20;3633667;-45
2024/03/08 03:26:21;;;;;;;;;73.67;54.00;;;;;3.94;100.00;99845.19;6304135;20;3648232;-48
2024/03/08 03:28:51;;;;;;;;;72.67;56.00;;;;;4.20;100.00;99850.56;6305275;20;3638922;-49
2024/03/08 03:31:23;;;;;;;;;76.00;58.00;;;;;4.12;100.00;99849.03;6304956;20;3633597;-47
2024/03/08 03:33:53;;;;;;;;;79.33;58.67;;;;;4.05;100.00;99847.47;6307833;20;3636732;-48
2024/03/08 03:36:24;;;;;;;;;79.00;55.67;;;;;3.97;100.00;99844.22;6310062;20;3656498;-47
2024/03/08 03:39:05;;;;;;;;;76.67;56.33;;;;;3.96;100.00;99842.47;6279208;20;3649290;-48
2024/03/08 03:41:34;;;;;;;;;75.00;57.00;;;;;4.08;100.00;99847.41;6310671;20;3621211;-51
2024/03/08 03:44:08;;;;;;;;;79.00;58.33;;;;;4.14;100.00;99851.66;6310189;20;3648181;-48
2024/03/08 03:46:45;;;;;;;;;96.67;70.00;;;;;4.04;100.00;99848.41;6308849;20;3674367;-45
2024/03/08 03:49:15;;;;;;;;;96.67;74.67;;;;;4.05;100.00;99847.47;6278369;20;3669075;-45
2024/03/08 03:51:46;;;;;;;;;83.67;62.00;;;;;3.93;100.00;99850.56;6280846;20;3644133;-47
2024/03/08 03:54:16;;;;;;;;;79.00;59.00;;;;;3.84;100.00;99849.03;6310061;20;3639941;-47
2024/03/08 03:56:46;;;;;;;;;80.67;60.00;;;;;3.92;100.00;99851.44;6308703;20;3641018;-45
2024/03/08 03:59:16;;;;;;;;;84.00;61.67;;;;;3.95;100.00;99846.94;6311447;20;3634640;-47
2024/03/08 04:01:46;;;;;;;;;78.33;60.00;;;;;3.97;100.00;99852.19;6308853;20;3619033;-46
2024/03/08 04:04:16;;;;;;;;;83.33;60.00;;;;;3.97;100.00;99850.38;6308126;20;3649234;-46
2024/03/08 04:06:46;;;;;;;;;86.00;63.33;;;;;4.14;100.00;99854.31;6309118;20;3660676;-46
2024/03/08 04:09:15;;;;;;;;;88.33;61.33;;;;;4.11;100.00;99852.63;6276778;20;3653440;-45
2024/03/08 04:11:49;;;;;;;;;78.00;59.33;;;;;4.16;100.00;99856.00;6307942;20;3638854;-48
2024/03/08 04:14:18;;;;;;;;;88.00;60.67;;;;;4.02;100.00;99858.22;6308062;20;3647208;-46
2024/03/08 04:16:48;;;;;;;;;91.67;72.33;;;;;4.15;100.00;99853.38;6308378;20;3649369;-46
2024/03/08 04:19:19;;;;;;;;;88.33;63.33;;;;;4.07;100.00;99852.75;6276666;20;3653416;-46
2024/03/08 04:21:48;;;;;;;;;103.33;78.33;;;;;4.05;100.00;99855.47;6273013;20;3680650;-50
2024/03/08 04:24:18;;;;;;;;;83.00;61.00;;;;;4.26;100.00;99858.34;6276055;20;3636889;-48
2024/03/08 04:26:47;;;;;;;;;85.00;62.33;;;;;4.17;100.00;99856.88;6305468;20;3639350;-46
2024/03/08 04:29:17;;;;;;;;;85.00;63.67;;;;;4.25;100.00;99860.13;6308720;20;3632731;-48
2024/03/08 04:31:47;;;;;;;;;84.67;63.67;;;;;4.36;100.00;99857.13;6305057;20;3671107;-49
2024/03/08 04:34:16;;;;;;;;;99.50;82.50;;;;;3.96;100.00;99853.97;6309915;20;4436693;-51
2024/03/08 04:36:46;;;;;;;;;79.33;57.67;;;;;3.99;100.00;99853.00;6307775;20;3650358;-48
2024/03/08 04:39:16;;;;;;;;;78.33;56.33;;;;;4.07;100.00;99863.38;6310889;20;3652328;-48
2024/03/08 04:41:46;;;;;;;;;77.67;55.00;;;;;3.92;100.00;99859.41;6308728;20;3641928;-49
2024/03/08 04:44:16;;;;;;;;;70.67;55.67;;;;;4.06;100.00;99869.63;6306315;20;3632553;-47
2024/03/08 04:46:46;;;;;;;;;73.67;54.67;;;;;4.01;100.00;99864.47;6306037;20;3642943;-46
2024/03/08 04:49:16;;;;;;;;;83.00;64.00;;;;;4.01;100.00;99874.22;6308088;20;2883765;-47
2024/03/08 04:51:46;;;;;;;;;74.33;54.67;;;;;4.02;100.00;99871.50;6308924;20;3642025;-46
2024/03/08 04:54:15;;;;;;;;;69.67;55.33;;;;;4.04;100.00;99876.78;6308448;20;3613802;-47
2024/03/08 04:56:45;;;;;;;;;77.33;59.67;;;;;3.96;100.00;99871.69;6308659;20;3626415;-47
2024/03/08 04:59:15;;;;;;;;;76.67;54.00;;;;;4.05;100.00;99876.72;6310288;20;3633617;-46
2024/03/08 05:01:45;;;;;;;;;80.00;60.00;;;;;4.07;100.00;99871.34;6308570;20;3613809;-47
2024/03/08 05:04:15;;;;;;;;;78.00;59.67;;;;;4.04;100.00;99874.13;6307641;20;3630470;-47
2024/03/08 05:06:44;;;;;;;;;69.67;51.33;;;;;4.11;100.00;99881.84;6304821;20;3639913;-46
2024/03/08 05:09:18;;;;;;;;;77.00;56.00;;;;;4.32;100.00;99880.28;6309490;20;3649243;-47
2024/03/08 05:11:48;;;;;;;;;83.67;63.00;;;;;4.35;100.00;99876.66;6309254;20;3629438;-46
2024/03/08 05:14:19;;;;;;;;;84.33;63.00;;;;;3.92;100.00;99878.00;6308880;20;3637816;-50
2024/03/08 05:16:50;;;;;;;;;74.67;58.33;;;;;4.26;100.00;99882.25;6310808;20;3616987;-48
2024/03/08 05:19:20;;;;;;;;;84.67;62.67;;;;;4.08;100.00;99884.59;6306733;20;3645084;-48
2024/03/08 05:21:50;;;;;;;;;79.00;58.00;;;;;3.97;100.00;99876.94;6306813;20;3648237;-47
2024/03/08 05:24:20;;;;;;;;;76.00;57.67;;;;;3.91;100.00;99878.94;6275454;20;3645108;-46
2024/03/08 05:26:50;;;;;;;;;78.33;55.33;;;;;3.90;100.00;99885.19;6308041;20;3632562;-50
2024/03/08 05:29:19;;;;;;;;;69.67;52.33;;;;;4.01;100.00;99885.72;6307594;20;3635709;-46
2024/03/08 05:31:54;;;;;;;;;72.67;52.67;;;;;3.99;100.00;99884.88;6305873;20;3645087;-46
2024/03/08 05:34:24;;;;;;;;;70.67;52.67;;;;;3.89;100.00;99886.09;6306041;20;2895204;-47
2024/03/08 05:36:54;;;;;;;;;76.00;58.67;;;;;4.13;100.00;99882.69;6306304;20;3622116;-49
2024/03/08 05:39:24;;;;;;;;;76.00;57.00;;;;;4.25;100.00;99891.16;6304795;20;3634766;-49
2024/03/08 05:41:55;;;;;;;;;72.67;56.33;;;;;4.09;100.00;99896.09;6305038;20;3632565;-49
2024/03/08 05:44:24;;;;;;;;;79.00;56.00;;;;;4.11;100.00;99900.44;6307651;20;3647118;-47
2024/03/08 05:46:55;;;;;;;;;74.67;55.00;;;;;4.25;100.00;99901.78;6308770;20;3629520;-47
2024/03/08 05:49:25;;;;;;;;;71.00;54.33;;;;;4.13;100.00;99903.03;6306531;20;2883809;-48
2024/03/08 05:51:54;;;;;;;;;70.67;54.33;;;;;4.13;100.00;99903.94;6309774;20;3631571;-46
2024/03/08 05:54:24;;;;;;;;;72.33;52.33;;;;;4.13;100.00;99914.56;6302903;20;3651298;-46
2024/03/08 05:56:55;;;;;;;;;72.67;55.00;;;;;4.09;100.00;99907.59;6305911;20;3629436;-45
2024/03/08 05:59:24;;;;;;;;;72.00;55.33;;;;;4.21;100.00;99913.44;6308618;20;3622155;-47
2024/03/08 06:01:54;;;;;;;;;61.33;50.00;;;;;4.06;100.00;99914.81;6303980;20;2875280;-52
2024/03/08 06:04:23;;;;;;;;;72.33;56.33;;;;;4.35;100.00;99913.88;6306872;20;3624210;-50
2024/03/08 06:06:55;;;;;;;;;65.67;54.33;;;;;4.15;100.00;99915.34;6308746;20;3624313;-46
2024/03/08 06:09:25;;;;;;;;;76.00;56.67;;;;;4.05;100.00;99913.91;6307161;20;3637774;-48
2024/03/08 06:11:57;;;;;;;;;76.00;53.00;;;;;4.26;100.00;99920.31;6306206;20;3636789;-45
2024/03/08 06:14:26;;;;;;;;;70.00;56.00;;;;;4.40;100.00;99925.22;6307813;20;2867988;-46
2024/03/08 06:16:54;;;;;;;;;47.00;36.50;;;;;4.19;100.00;99924.13;6308954;20;2846120;-45
2024/03/08 06:19:24;;;;;;;;;78.67;57.33;;;;;3.97;100.00;99923.91;6277924;20;3651304;-46
2024/03/08 06:21:53;;;;;;;;;77.00;56.67;;;;;4.29;100.00;99924.69;6306609;20;3638794;-46
2024/03/08 06:24:23;;;;;;;;;70.67;56.00;;;;;4.44;100.00;99928.63;6305711;20;3623161;-49
2024/03/08 06:26:53;;;;;;;;;79.00;57.00;;;;;4.28;100.00;99930.91;6307525;20;3653357;-48
2024/03/08 06:29:23;;;;;;;;;77.00;58.00;;;;;4.29;100.00;99930.00;6306023;20;3645815;-48
2024/03/08 06:31:53;;;;;;;;;72.00;54.33;;;;;4.27;100.00;99934.50;6306393;20;3627347;-47
2024/03/08 06:34:25;;;;;;;;;71.67;53.67;;;;;4.13;100.00;99930.50;6307017;20;3617147;-47
2024/03/08 06:37:00;;;;;;;;;70.67;51.67;;;;;4.17;100.00;99936.59;6307777;20;3636748;-47
2024/03/08 06:39:31;;;;;;;;;75.67;57.33;;;;;4.45;100.00;99933.91;6307506;20;3638910;-48
2024/03/08 06:42:01;;;;;;;;;71.33;54.33;;;;;4.77;100.00;99937.31;6305643;20;3618024;-51
2024/03/08 06:44:31;;;;;;;;;64.33;52.00;;;;;4.56;100.00;99934.44;6305912;20;3635725;-46
2024/03/08 06:47:00;;;;;;;;;68.67;53.00;;;;;4.56;100.00;99934.44;6307233;20;3624242;-47
2024/03/08 06:49:31;;;;;;;;;69.67;52.67;;;;;4.47;100.00;99945.34;6306776;20;3644066;-46
2024/03/08 06:52:01;;;;;;;;;66.33;51.33;;;;;4.56;100.00;99938.88;6306563;20;3638853;-46
2024/03/08 06:54:30;;;;;;;;;70.33;53.00;;;;;4.19;100.00;99945.38;6306064;20;3636783;-45
2024/03/08 06:57:00;;;;;;;;;72.33;54.00;;;;;4.25;100.00;99949.63;6306108;20;3638938;-46
2024/03/08 06:59:31;;;;;;;;;75.33;55.33;;;;;4.49;100.00;99945.31;6306036;20;3639869;-48
2024/03/08 07:02:01;;;;;;;;;74.33;54.67;;;;;4.15;100.00;99936.63;6306562;20;3633628;-46
2024/03/08 07:04:33;;;;;;;;;76.67;57.00;;;;;4.80;100.00;99947.84;6305439;20;3610745;-49
2024/03/08 07:07:08;;;;;;;;;70.50;54.50;;;;;4.81;100.00;99950.41;6305859;20;3512773;-46
2024/03/08 07:09:37;;;;;;;;;72.67;55.67;;;;;4.91;100.00;99948.31;6305324;20;2877544;-46
2024/03/08 07:12:07;;;;;;;;;72.67;54.67;;;;;4.67;100.00;99951.81;6305331;20;3628383;-51
2024/03/08 07:14:40;;;;;;;;;71.33;54.33;;;;;4.55;100.00;99948.63;6306956;20;3642980;-47
2024/03/08 07:17:10;;;;;;;;;70.33;54.67;;;;;4.72;100.00;99955.19;6306483;20;3623222;-46
2024/03/08 07:19:39;;;;;;;;;68.00;52.67;;;;;4.20;100.00;99949.75;6307964;20;3628807;-47
2024/03/08 07:22:09;;;;;;;;;70.67;53.67;;;;;4.57;100.00;99957.44;6304432;20;3641911;-48
2024/03/08 07:27:18;;;;;;;;;71.33;52.67;;;;;4.49;100.00;99961.25;6306873;20;3645051;-46
2024/03/08 07:29:48;;;;;;;;;68.00;51.33;;;;;4.78;100.00;99960.31;6305513;20;3639874;-46
2024/03/08 07:32:25;;;;;;;;;69.67;52.67;;;;;4.94;100.00;99968.63;6305832;20;3638793;-47
2024/03/08 07:34:55;;;;;;;;;70.33;51.67;;;;;4.70;100.00;99957.91;6300363;20;3633734;-45
2024/03/08 07:37:25;;;;;;;;;67.33;52.00;;;;;4.62;100.00;99965.25;6305813;20;3639825;-48
2024/03/08 07:39:55;;;;;;;;;69.33;52.33;;;;;4.70;100.00;99967.69;6307602;20;3644570;-46
2024/03/08 07:42:24;;;;;;;;;67.33;53.67;;;;;4.77;100.00;99970.09;6272332;20;3630525;-46
2024/03/08 07:44:54;;;;;;;;;65.00;50.67;;;;;4.90;100.00;99970.53;6305554;20;3624286;-48
2024/03/08 07:47:24;;;;;;;;;65.00;51.67;;;;;4.47;100.00;99971.94;6303899;20;3625316;-48
2024/03/08 07:49:54;;;;;;;;;67.33;53.00;;;;;4.77;100.00;99971.88;6308174;20;3639907;-48
2024/03/08 07:52:23;;;;;;;;;76.33;58.33;;;;;4.37;100.00;99966.06;6305048;20;3625242;-46
2024/03/08 07:54:54;;;;;;;;;89.33;66.00;;;;;4.75;100.00;99968.38;6305923;20;3652473;-46
2024/03/08 07:57:22;;;;;;;;;84.00;63.50;;;;;4.83;100.00;99979.66;6276697;20;2500326;-47
2024/03/08 07:59:52;;;;;;;;;79.33;58.33;;;;;4.92;100.00;99968.69;6272792;20;3637832;-47
2024/03/08 08:02:21;;;;;;;;;86.00;64.00;;;;;4.70;100.00;99973.00;6305229;20;3649288;-45
2024/03/08 08:04:51;;;;;;;;;75.00;57.00;;;;;4.82;100.00;99977.91;6298857;20;3632697;-49
2024/03/08 08:07:22;;;;;;;;;77.00;55.67;;;;;4.66;100.00;99966.91;6306697;20;3645239;-46
2024/03/08 08:09:53;;;;;;;;;67.00;53.00;;;;;4.43;100.00;99969.44;6308051;20;3637797;-47
2024/03/08 08:12:22;;;;;;;;;77.00;57.67;;;;;4.86;100.00;99962.72;6307514;20;3638836;-48
2024/03/08 08:14:52;;;;;;;;;75.00;55.33;;;;;4.57;100.00;99967.19;6304839;20;3626325;-48
2024/03/08 08:17:22;;;;;;;;;69.33;54.00;;;;;4.50;100.00;99963.88;6306729;20;3610726;-46
2024/03/08 08:19:51;;;;;;;;;75.00;53.00;;;;;4.56;100.00;99963.69;6304798;20;3655521;-47
2024/03/08 08:22:21;;;;;;;;;71.00;54.33;;;;;5.01;100.00;99957.75;6278261;20;3642050;-44
2024/03/08 08:24:52;;;;;;;;;69.00;52.33;;;;;5.07;100.00;99965.50;6310069;20;3637844;-48
2024/03/08 08:27:21;;;;;;;;;74.00;55.33;;;;;4.70;100.00;99965.00;6309904;20;3639922;-48
2024/03/08 08:29:51;;;;;;;;;71.33;54.33;;;;;4.79;100.00;99964.69;6309099;20;3628470;-49
2024/03/08 08:32:20;;;;;;;;;70.00;54.33;;;;;4.94;100.00;99971.31;6311599;20;3634715;-47
2024/03/08 08:34:50;;;;;;;;;63.67;50.00;;;;;4.77;100.00;99970.09;6308714;20;3612791;-46
2024/03/08 08:37:20;;;;;;;;;75.67;55.67;;;;;5.13;100.00;99971.53;6309762;20;3631485;-45
2024/03/08 08:39:52;;;;;;;;;72.00;56.00;;;;;5.14;100.00;99962.66;6312619;20;3644153;-50
2024/03/08 08:42:22;;;;;;;;;72.00;52.67;;;;;5.22;100.00;99968.56;6308533;20;3637805;-47
2024/03/08 08:44:52;;;;;;;;;74.33;53.67;;;;;4.92;100.00;99974.00;6308758;20;3652378;-48
2024/03/08 08:47:24;;;;;;;;;72.67;54.67;;;;;4.98;100.00;99965.84;6309650;20;3633583;-47
2024/03/08 08:49:54;;;;;;;;;79.33;58.33;;;;;5.19;100.00;99968.69;6309615;20;3645215;-46
2024/03/08 08:52:24;;;;;;;;;67.33;51.00;;;;;5.06;100.00;99965.56;6308584;20;3642982;-49
2024/03/08 08:54:53;;;;;;;;;65.33;53.33;;;;;4.87;100.00;99973.31;6307575;20;2870343;-48
2024/03/08 08:57:23;;;;;;;;;70.00;54.00;;;;;5.21;100.00;99966.81;6310947;20;3634688;-47
2024/03/08 08:59:52;;;;;;;;;73.00;56.33;;;;;4.95;100.00;99973.91;6309034;20;3631562;-48
2024/03/08 09:02:22;;;;;;;;;98.67;90.00;;;;;4.99;100.00;99964.91;6310043;20;3657662;-49
2024/03/08 09:04:52;;;;;;;;;90.00;68.67;;;;;5.00;100.00;99971.09;6271270;20;3668064;-47
2024/03/08 09:07:21;;;;;;;;;84.00;61.00;;;;;5.02;100.00;99975.44;6281689;20;3645081;-45
2024/03/08 09:09:52;;;;;;;;;75.33;54.00;;;;;4.93;100.00;99967.78;6278003;20;3640015;-45
2024/03/08 09:12:21;;;;;;;;;78.67;55.00;;;;;4.96;100.00;99969.47;6309442;20;3641956;-47
2024/03/08 09:14:51;;;;;;;;;66.33;51.33;;;;;5.15;100.00;99961.72;6306936;20;3630517;-49
2024/03/08 09:17:20;;;;;;;;;73.33;54.00;;;;;5.22;100.00;99960.59;6305484;20;3650277;-50
2024/03/08 09:19:50;;;;;;;;;73.33;52.67;;;;;5.33;100.00;99962.84;6277513;20;3652747;-47
2024/03/08 09:22:20;;;;;;;;;75.67;54.67;;;;;5.19;100.00;99961.56;6309515;20;3647162;-46
2024/03/08 09:24:49;;;;;;;;;74.00;56.00;;;;;5.23;100.00;99957.84;6307489;20;2773315;-48
2024/03/08 09:27:19;;;;;;;;;72.67;55.00;;;;;5.57;100.00;99961.09;6277071;20;3637801;-51
2024/03/08 09:29:49;;;;;;;;;77.00;58.67;;;;;5.15;100.00;99967.03;6308549;20;2867155;-48
2024/03/08 09:32:17;;;;;;;;;71.50;56.50;;;;;5.39;100.00;99966.16;6307797;20;2866945;-48
2024/03/08 09:34:44;;;;;;;;;112.50;90.00;;;;;5.47;100.00;99965.88;6272970;20;1951583;-49
2024/03/08 09:37:14;;;;;;;;;84.00;65.00;;;;;5.42;100.00;99966.03;6274941;20;3648203;-46
2024/03/08 09:39:44;;;;;;;;;78.33;59.00;;;;;5.45;100.00;99962.41;6276547;20;3639839;-48
2024/03/08 09:42:15;;;;;;;;;81.67;61.00;;;;;6.25;100.00;99965.63;6308794;20;3639192;-46
2024/03/08 09:44:48;;;;;;;;;71.33;56.00;;;;;6.61;100.00;99965.09;6309678;20;3621213;-55
2024/03/08 09:47:18;;;;;;;;;74.00;51.67;;;;;6.49;100.00;99962.94;6274022;20;3642985;-47
2024/03/08 09:49:48;;;;;;;;;65.00;53.67;;;;;6.20;100.00;99977.41;6306411;20;3629430;-47
2024/03/08 09:52:19;;;;;;;;;67.50;54.00;;;;;6.65;100.00;99969.38;6308329;20;2820096;-50
2024/03/08 09:54:49;;;;;;;;;76.00;55.00;;;;;6.89;100.00;99969.28;6305054;20;3604463;-50
2024/03/08 09:57:20;;;;;;;;;73.00;53.67;;;;;6.52;100.00;99965.47;6307492;20;3652332;-50
2024/03/08 09:59:50;;;;;;;;;71.67;56.00;;;;;6.96;100.00;99968.09;6273631;20;3633605;-51
2024/03/08 10:02:21;;;;;;;;;75.33;54.33;;;;;6.67;100.00;99963.97;6307872;20;3639839;-46
2024/03/08 10:04:53;;;;;;;;;67.33;52.33;;;;;6.58;100.00;99974.09;6302530;20;3635122;-48
2024/03/08 10:07:24;;;;;;;;;85.75;65.75;;;;;6.88;100.00;99976.44;6309040;20;3669152;-48
2024/03/08 10:09:54;;;;;;;;;71.67;50.00;;;;;7.45;100.00;99979.31;6308036;20;3650416;-48
2024/03/08 10:12:24;;;;;;;;;68.33;52.00;;;;;6.87;100.00;99973.81;6274711;20;3641969;-49
2024/03/08 10:14:56;;;;;;;;;67.00;52.67;;;;;7.00;100.00;99969.69;6304983;20;2858819;-49
2024/03/08 10:17:26;;;;;;;;;70.00;53.67;;;;;7.19;100.00;99980.47;6308734;20;3621104;-46
2024/03/08 10:19:58;;;;;;;;;66.67;51.67;;;;;6.64;100.00;99974.78;6307892;20;3629451;-47
2024/03/08 10:22:29;;;;;;;;;70.33;52.00;;;;;7.06;100.00;99972.13;6308299;20;3635671;-46
2024/03/08 10:25:00;;;;;;;;;64.67;50.33;;;;;7.41;100.00;99975.94;6302975;20;3629489;-46
2024/03/08 10:27:29;;;;;;;;;69.00;52.00;;;;;6.89;100.00;99971.94;6306231;20;3644024;-49
2024/03/08 10:29:58;;;;;;;;;65.33;51.67;;;;;7.69;100.00;99966.69;6307857;20;3621243;-46
2024/03/08 10:32:30;;;;;;;;;72.25;53.00;;;;;6.73;100.00;99966.38;6277927;20;4402337;-48
2024/03/08 10:35:00;;;;;;;;;70.25;53.00;;;;;7.28;100.00;99969.38;6308896;20;3644092;-46
2024/03/08 10:37:33;;;;;;;;;64.67;50.33;;;;;6.53;100.00;99970.75;6305375;20;3624295;-46
2024/03/08 10:40:10;;;;;;;;;65.67;51.33;;;;;6.92;100.00;99966.47;6306390;20;3623242;-47
2024/03/08 10:42:54;;;;;;;;;73.33;57.00;;;;;7.03;100.00;99969.59;6273430;20;3616940;-46
2024/03/08 10:45:43;;;;;;;;;76.67;56.67;;;;;6.61;100.00;99965.09;6305396;20;3618022;-51
2024/03/08 10:48:32;;;;;;;;;73.67;56.33;;;;;6.54;100.00;99968.94;6305301;20;3622167;-54
2024/03/08 10:51:11;;;;;;;;;66.33;50.33;;;;;6.71;100.00;99963.75;6304102;20;3637892;-50
2024/03/08 10:53:41;;;;;;;;;76.67;58.00;;;;;6.73;100.00;99967.25;6302821;20;3628389;-49
2024/03/08 10:56:10;;;;;;;;;75.33;55.33;;;;;6.61;100.00;99967.78;6308047;20;3630470;-51
2024/03/08 10:58:41;;;;;;;;;74.33;57.67;;;;;6.61;100.00;99962.44;6274879;20;3624233;-49
2024/03/08 11:01:11;;;;;;;;;72.00;55.67;;;;;6.50;100.00;99964.66;6302664;20;3614960;-51
2024/03/08 11:03:44;;;;;;;;;64.33;50.67;;;;;6.30;100.00;99961.00;6304916;20;3599253;-49
2024/03/08 11:06:37;;;;;;;;;71.00;53.50;;;;;6.36;100.00;99966.06;6306979;20;3522266;-48
2024/03/08 11:09:36;;;;;;;;;72.00;53.00;;;;;6.73;100.00;99959.25;6305860;20;3647207;-49
2024/03/08 11:12:30;;;;;;;;;71.33;53.33;;;;;6.32;100.00;99959.13;6306370;20;3638851;-48
2024/03/08 11:15:09;;;;;;;;;72.00;55.67;;;;;6.28;100.00;99952.19;6304489;20;3619128;-46
2024/03/08 11:17:39;;;;;;;;;66.00;53.67;;;;;6.20;100.00;99954.28;6305528;20;2871186;-48
2024/03/08 11:20:17;;;;;;;;;68.33;50.67;;;;;6.25;100.00;99954.97;6305929;20;3645054;-46